TimeEST,TemperatureF,Dew PointF,Humidity,Sea Level PressureIn,VisibilityMPH,Wind Direction,Wind SpeedMPH,Gust SpeedMPH,PrecipitationIn,Events,Conditions,WindDirDegrees,DateUTC
12:15 AM,33.8,30.2,87,29.97,10.0,NW,10.4,17.3,N/A,,Mostly Cloudy,320,2013-02-17 05:15:00
12:35 AM,33.8,28.4,81,29.97,10.0,NW,11.5,16.1,N/A,,Clear,310,2013-02-17 05:35:00
12:55 AM,33.8,28.4,81,29.98,10.0,WNW,10.4,-,N/A,,Clear,290,2013-02-17 05:55:00
1:15 AM,33.8,28.4,81,29.99,10.0,West,11.5,-,N/A,,Clear,280,2013-02-17 06:15:00
1:35 AM,33.8,28.4,81,30.00,10.0,West,10.4,-,N/A,,Clear,280,2013-02-17 06:35:00
1:55 AM,32.0,28.4,87,30.00,10.0,West,11.5,-,N/A,,Clear,280,2013-02-17 06:55:00
2:15 AM,32.0,28.4,87,30.01,10.0,West,11.5,18.4,N/A,,Clear,280,2013-02-17 07:15:00
2:35 AM,32.0,28.4,87,30.01,10.0,WNW,10.4,-,N/A,,Clear,290,2013-02-17 07:35:00
2:55 AM,32.0,28.4,87,30.01,10.0,West,12.7,-,N/A,,Partly Cloudy,280,2013-02-17 07:55:00
3:15 AM,30.2,28.4,93,30.02,10.0,WNW,10.4,-,N/A,,Clear,290,2013-02-17 08:15:00
3:35 AM,30.2,28.4,93,30.03,10.0,WNW,10.4,-,N/A,,Clear,290,2013-02-17 08:35:00
3:55 AM,30.2,26.6,86,30.04,10.0,West,9.2,-,N/A,,Clear,280,2013-02-17 08:55:00
4:15 AM,30.2,26.6,86,30.04,10.0,WNW,8.1,-,N/A,,Clear,290,2013-02-17 09:15:00
4:35 AM,30.2,26.6,86,30.05,10.0,West,11.5,-,N/A,,Clear,280,2013-02-17 09:35:00
4:55 AM,30.2,26.6,86,30.06,10.0,WNW,11.5,-,N/A,,Clear,290,2013-02-17 09:55:00
5:15 AM,28.4,24.8,86,30.07,10.0,WNW,10.4,-,N/A,,Clear,290,2013-02-17 10:15:00
5:35 AM,28.4,24.8,86,30.08,10.0,WNW,8.1,-,N/A,,Clear,290,2013-02-17 10:35:00
5:50 AM,28.4,24.8,86,30.08,10.0,NW,10.4,-,N/A,,Clear,310,2013-02-17 10:50:00
6:45 AM,28.4,24.8,86,30.10,10.0,WNW,9.2,-,N/A,,Clear,300,2013-02-17 11:45:00
7:45 AM,28.4,24.8,86,30.13,10.0,WNW,11.5,-,N/A,,Clear,300,2013-02-17 12:45:00
8:45 AM,30.2,23.0,75,30.17,10.0,NW,16.1,-,N/A,,Clear,310,2013-02-17 13:45:00
9:45 AM,32.0,23.0,69,30.18,10.0,NW,11.5,-,N/A,,Clear,310,2013-02-17 14:45:00
10:45 AM,33.8,21.2,60,30.19,10.0,NW,11.5,-,N/A,,Clear,310,2013-02-17 15:45:00
11:45 AM,35.6,21.2,56,30.19,10.0,NW,11.5,-,N/A,,Clear,320,2013-02-17 16:45:00
12:45 PM,37.4,19.4,48,30.18,10.0,NW,17.3,25.3,N/A,,Partly Cloudy,320,2013-02-17 17:45:00
1:48 PM,39.2,15.8,39,30.18,10.0,NW,20.7,28.8,N/A,,Scattered Clouds,320,2013-02-17 18:48:00
2:45 PM,39.2,17.6,42,-9999,10.0,NNW,16.1,24.2,N/A,,Scattered Clouds,330,2013-02-17 19:45:00
3:45 PM,39.2,15.8,39,30.18,10.0,NW,17.3,24.2,N/A,,Partly Cloudy,310,2013-02-17 20:45:00
4:45 PM,39.2,15.8,39,30.19,10.0,NW,11.5,24.2,N/A,,Partly Cloudy,320,2013-02-17 21:45:00
5:48 PM,39.2,15.8,39,30.21,10.0,NW,11.5,23.0,N/A,,Clear,320,2013-02-17 22:48:00
7:45 PM,30.2,21.2,69,30.26,10.0,West,3.5,-,N/A,,Clear,270,2013-02-18 00:45:00
8:45 PM,30.2,23.0,75,30.28,10.0,WSW,4.6,-,N/A,,Clear,240,2013-02-18 01:45:00
9:47 PM,28.4,23.0,80,30.29,10.0,SW,5.8,-,N/A,,Clear,220,2013-02-18 02:47:00
10:55 PM,28.4,24.8,86,30.30,10.0,Calm,Calm,-,N/A,,Clear,0,2013-02-18 03:55:00
11:15 PM,26.6,23.0,86,30.30,10.0,Calm,Calm,-,N/A,,Clear,0,2013-02-18 04:15:00
11:35 PM,28.4,21.2,74,30.30,10.0,Calm,Calm,-,N/A,,Clear,0,2013-02-18 04:35:00
11:55 PM,26.6,19.4,74,30.31,10.0,Calm,Calm,-,N/A,,Clear,0,2013-02-18 04:55:00